Time;durP1;ratioP1;P1;durP2;ratioP2;P2;SDS_P1;SDS_P2;PMS_P1;PMS_P2;Temp;Humidity;BMP_temperature;BMP_pressure;BME280_temperature;BME280_humidity;BME280_pressure;Samples;Min_cycle;Max_cycle;Signal;HPM_P1;HPM_P2
2022/01/23 00:00:03;;;;;;;;;;;-3276.60;86.40;;;;;;5074098;28;20476;-87
2022/01/23 00:02:30;;;;;;;;;;;-3276.40;86.60;;;;;;5072779;28;20350;-87
2022/01/23 00:04:56;;;;;;;;;;;-3276.40;87.00;;;;;;5073101;28;19916;-87
2022/01/23 00:07:22;;;;;;;;;;;-3276.30;87.10;;;;;;5072765;28;20381;-87
2022/01/23 00:09:47;;;;;;;;;;;-3276.20;88.20;;;;;;5078211;28;19912;-87
2022/01/23 00:12:20;;;;;;;;;;;-3276.20;89.00;;;;;;5072801;28;20273;-87
2022/01/23 00:17:34;;;;;;;;;;;-3276.10;89.70;;;;;;5073743;28;19916;-87
2022/01/23 00:20:02;;;;;;;;;;;-3276.10;90.00;;;;;;5052945;28;19909;-87
2022/01/23 00:22:38;;;;;;;;;;;-3276.10;90.20;;;;;;5052536;28;19964;-87
2022/01/23 00:30:34;;;;;;;;;;;-3276.30;90.60;;;;;;5072930;28;19931;-87
2022/01/23 00:33:04;;;;;;;;;;;-3276.20;90.00;;;;;;5072550;28;20278;-87
2022/01/23 00:35:30;;;;;;;;;;;-3276.30;90.00;;;;;;5072586;28;20362;-87
2022/01/23 00:37:57;;;;;;;;;;;-3276.30;89.90;;;;;;5073573;28;20017;-87
2022/01/23 00:40:23;;;;;;;;;;;-3276.30;89.80;;;;;;5072805;28;20046;-87
2022/01/23 00:42:49;;;;;;;;;;;-3276.30;89.60;;;;;;5072627;28;19986;-87
2022/01/23 00:47:40;;;;;;;;;;;-3276.30;89.60;;;;;;5073490;28;20278;-87
2022/01/23 00:50:06;;;;;;;;;;;-3276.30;89.60;;;;;;5074753;28;20358;-87
2022/01/23 00:52:31;;;;;;;;;;;-3276.20;89.30;;;;;;5075983;28;19912;-87
2022/01/23 00:55:00;;;;;;;;;;;-3276.20;89.50;;;;;;5075961;28;20006;-87
2022/01/23 00:57:26;;;;;;;;;;;-3276.30;89.60;;;;;;5075949;28;20378;-87
2022/01/23 00:59:51;;;;;;;;;;;-3276.30;89.70;;;;;;5076939;28;19909;-87
2022/01/23 01:02:17;;;;;;;;;;;-3276.20;88.70;;;;;;5075751;28;19916;-87
2022/01/23 01:04:42;;;;;;;;;;;-3276.10;88.80;;;;;;5075790;28;19914;-87
2022/01/23 01:07:08;;;;;;;;;;;-3276.10;89.20;;;;;;5075732;28;19991;-87
2022/01/23 01:09:33;;;;;;;;;;;-3276.10;89.50;;;;;;5092063;28;19908;-87
2022/01/23 01:12:04;;;;;;;;;;;-3276.20;89.90;;;;;;5094172;28;19920;-87
2022/01/23 01:17:06;;;;;;;;;;;-3276.30;89.40;;;;;;5077198;28;20308;-87
2022/01/23 01:30:38;;;;;;;;;;;-3276.20;89.40;;;;;;5077762;28;19919;-87
2022/01/23 01:33:35;;;;;;;;;;;-3276.20;89.60;;;;;;5075567;28;19914;-87
2022/01/23 01:36:18;;;;;;;;;;;-3276.20;89.60;;;;;;5075194;28;19913;-87
2022/01/23 01:38:44;;;;;;;;;;;-3276.30;89.90;;;;;;5075396;28;19996;-87
2022/01/23 01:41:10;;;;;;;;;;;-3276.20;89.60;;;;;;5091383;28;20368;-87
2022/01/23 01:43:35;;;;;;;;;;;-3276.10;89.40;;;;;;5093510;28;20014;-87
2022/01/23 01:46:01;;;;;;;;;;;-3275.90;89.40;;;;;;5095282;28;19922;-87
2022/01/23 01:48:27;;;;;;;;;;;-3275.90;89.70;;;;;;5095198;28;19908;-87
2022/01/23 01:50:55;;;;;;;;;;;-3275.90;90.00;;;;;;5077792;28;19954;-87
2022/01/23 01:53:21;;;;;;;;;;;-3275.90;90.10;;;;;;5073575;28;20293;-87
2022/01/23 01:55:51;;;;;;;;;;;-3275.90;90.10;;;;;;5074873;28;19915;-87
2022/01/23 01:59:08;;;;;;;;;;;-3275.90;90.20;;;;;;5075024;28;19949;-87
2022/01/23 02:09:24;;;;;;;;;;;-3276.10;89.80;;;;;;5064715;28;19970;-87
2022/01/23 02:55:38;;;;;;;;;;;-3276.10;87.10;;;;;;5073729;28;19912;-87
2022/01/23 02:58:06;;;;;;;;;;;-3276.20;87.40;;;;;;5093930;28;19957;-87
2022/01/23 03:00:36;;;;;;;;;;;-3276.20;87.40;;;;;;5092089;28;20413;-87
2022/01/23 03:03:09;;;;;;;;;;;-3276.30;87.60;;;;;;5093797;28;20018;-87
2022/01/23 03:05:38;;;;;;;;;;;-3276.30;87.80;;;;;;5082013;28;19912;-87
2022/01/23 03:13:37;;;;;;;;;;;-3276.40;87.70;;;;;;5073045;28;19938;-87
2022/01/23 03:24:38;;;;;;;;;;;-3276.70;88.00;;;;;;5046749;28;19916;-86
2022/01/23 03:34:50;;;;;;;;;;;-3276.60;87.80;;;;;;5093399;28;19915;-87
2022/01/23 03:37:16;;;;;;;;;;;-3276.60;87.80;;;;;;5080629;28;20281;-86
2022/01/23 03:39:42;;;;;;;;;;;-3276.60;87.80;;;;;;5073133;28;19909;-87
2022/01/23 03:42:08;;;;;;;;;;;-3276.50;87.90;;;;;;5058915;22;20298;-87
2022/01/23 03:44:39;;;;;;;;;;;-3276.60;87.80;;;;;;5034401;28;19917;-87
2022/01/23 03:50:10;;;;;;;;;;;-3276.50;87.80;;;;;;4972907;28;19942;-87
2022/01/23 03:52:36;;;;;;;;;;;-3276.40;87.80;;;;;;4971991;28;19914;-87
2022/01/23 03:55:06;;;;;;;;;;;-3276.40;87.90;;;;;;5008996;28;19917;-87
2022/01/23 03:57:32;;;;;;;;;;;-3276.30;88.10;;;;;;5038386;28;19913;-87
2022/01/23 03:59:57;;;;;;;;;;;-3276.20;88.20;;;;;;5039012;28;19931;-87
2022/01/23 04:02:23;;;;;;;;;;;-3276.20;88.30;;;;;;5032855;28;19921;-87
2022/01/23 04:04:48;;;;;;;;;;;-3276.20;88.30;;;;;;5041852;28;19913;-87
2022/01/23 04:07:21;;;;;;;;;;;-3276.20;88.30;;;;;;5043700;28;19974;-87
2022/01/23 04:09:47;;;;;;;;;;;-3276.30;88.30;;;;;;5052946;28;19940;-87
2022/01/23 04:15:00;;;;;;;;;;;-3276.40;87.90;;;;;;5041825;28;20398;-87
2022/01/23 04:20:31;;;;;;;;;;;-3276.50;87.70;;;;;;5032791;28;19916;-87
2022/01/23 04:33:58;;;;;;;;;;;0.00;86.00;;;;;;5051051;28;19959;-87
2022/01/23 04:48:32;;;;;;;;;;;0.20;84.70;;;;;;5036200;28;19951;-87
2022/01/23 05:01:12;;;;;;;;;;;0.10;85.20;;;;;;5056193;28;19924;-87
2022/01/23 05:06:06;;;;;;;;;;;0.00;85.00;;;;;;5035895;28;20338;-87
2022/01/23 05:08:34;;;;;;;;;;;0.00;85.40;;;;;;5035730;28;19913;-87
2022/01/23 05:11:06;;;;;;;;;;;0.00;85.80;;;;;;5036034;28;19979;-87
2022/01/23 05:13:32;;;;;;;;;;;0.00;85.90;;;;;;5037011;28;19917;-87
2022/01/23 05:15:57;;;;;;;;;;;0.00;86.00;;;;;;5048100;28;19921;-87
2022/01/23 05:18:23;;;;;;;;;;;0.00;86.10;;;;;;5035890;28;19925;-87
2022/01/23 05:20:56;;;;;;;;;;;0.00;86.30;;;;;;5034396;28;20271;-87
2022/01/23 05:23:22;;;;;;;;;;;0.10;86.20;;;;;;5035456;28;19913;-87
2022/01/23 05:25:47;;;;;;;;;;;0.20;86.20;;;;;;5055234;28;20373;-87
2022/01/23 05:28:13;;;;;;;;;;;0.10;86.10;;;;;;5055253;28;20344;-87
2022/01/23 05:30:40;;;;;;;;;;;0.00;86.60;;;;;;5053577;28;20424;-87
2022/01/23 05:33:05;;;;;;;;;;;0.00;87.20;;;;;;5055293;28;20378;-87
2022/01/23 05:35:31;;;;;;;;;;;0.00;87.60;;;;;;5037132;28;20036;-87
2022/01/23 05:37:57;;;;;;;;;;;0.00;87.60;;;;;;5035331;28;20046;-87
2022/01/23 05:40:26;;;;;;;;;;;0.10;87.30;;;;;;5035261;28;19909;-87
2022/01/23 05:42:51;;;;;;;;;;;0.20;87.10;;;;;;5034919;28;19928;-87
2022/01/23 05:45:17;;;;;;;;;;;0.30;87.00;;;;;;5036165;28;19913;-87
2022/01/23 05:47:42;;;;;;;;;;;0.30;86.90;;;;;;5035127;28;19931;-87
2022/01/23 05:50:08;;;;;;;;;;;0.40;86.70;;;;;;5033787;28;19955;-87
2022/01/23 05:52:34;;;;;;;;;;;0.50;86.60;;;;;;5033735;28;19910;-87
2022/01/23 05:54:59;;;;;;;;;;;0.50;86.40;;;;;;5035980;28;19919;-87
2022/01/23 05:57:25;;;;;;;;;;;0.60;85.80;;;;;;5034938;28;20000;-87
2022/01/23 05:59:50;;;;;;;;;;;0.60;84.90;;;;;;5035850;28;19920;-87
2022/01/23 06:02:16;;;;;;;;;;;0.70;84.80;;;;;;5034739;28;19917;-87
2022/01/23 06:04:42;;;;;;;;;;;0.70;84.90;;;;;;5035813;28;19913;-87
2022/01/23 06:07:07;;;;;;;;;;;0.70;85.10;;;;;;5034718;28;19909;-87
2022/01/23 06:09:36;;;;;;;;;;;0.60;85.30;;;;;;5034620;28;19909;-87
2022/01/23 06:12:02;;;;;;;;;;;0.60;85.50;;;;;;5034612;28;20334;-87
2022/01/23 06:14:27;;;;;;;;;;;0.50;85.90;;;;;;5035608;28;20011;-87
2022/01/23 06:16:53;;;;;;;;;;;0.50;86.10;;;;;;5049249;28;20363;-87
2022/01/23 06:19:19;;;;;;;;;;;0.60;85.80;;;;;;5054683;28;19909;-87
2022/01/23 06:21:44;;;;;;;;;;;0.60;85.50;;;;;;5054545;28;20371;-87
2022/01/23 06:24:21;;;;;;;;;;;0.60;85.80;;;;;;5052838;28;20382;-87
2022/01/23 06:26:48;;;;;;;;;;;0.50;86.40;;;;;;5014793;28;19919;-87
2022/01/23 06:29:15;;;;;;;;;;;0.60;86.60;;;;;;5018460;28;19967;-87
2022/01/23 06:31:41;;;;;;;;;;;0.60;86.40;;;;;;5034260;28;19913;-87
2022/01/23 06:34:07;;;;;;;;;;;0.70;86.20;;;;;;5037266;28;19913;-87
2022/01/23 06:36:34;;;;;;;;;;;0.80;86.00;;;;;;5053967;28;20274;-87
2022/01/23 06:39:01;;;;;;;;;;;0.80;85.80;;;;;;5054010;28;20371;-87
2022/01/23 06:41:26;;;;;;;;;;;0.90;85.60;;;;;;5053839;28;19921;-87
2022/01/23 06:43:52;;;;;;;;;;;0.90;85.30;;;;;;5052489;28;19917;-87
2022/01/23 06:46:18;;;;;;;;;;;0.90;85.00;;;;;;5053330;28;19915;-87
2022/01/23 06:48:43;;;;;;;;;;;1.00;85.10;;;;;;5053479;28;19909;-87
2022/01/23 06:51:09;;;;;;;;;;;1.00;85.30;;;;;;5053847;28;19909;-87
2022/01/23 06:53:34;;;;;;;;;;;1.00;85.40;;;;;;5053793;28;19911;-87
2022/01/23 06:56:00;;;;;;;;;;;1.00;85.30;;;;;;5035039;28;19958;-87
2022/01/23 06:58:25;;;;;;;;;;;1.00;85.10;;;;;;5033787;28;19913;-87
2022/01/23 07:00:51;;;;;;;;;;;1.10;85.00;;;;;;5034989;28;19921;-87
2022/01/23 07:03:16;;;;;;;;;;;1.10;84.90;;;;;;5033918;28;20338;-87
2022/01/23 07:05:42;;;;;;;;;;;1.10;85.00;;;;;;5049153;28;20500;-87
2022/01/23 07:08:07;;;;;;;;;;;1.10;85.20;;;;;;5053524;28;19909;-87
2022/01/23 07:10:33;;;;;;;;;;;1.20;85.20;;;;;;5053453;28;19909;-87
2022/01/23 07:12:58;;;;;;;;;;;1.20;85.20;;;;;;5053421;28;19909;-87
2022/01/23 07:15:24;;;;;;;;;;;1.20;85.10;;;;;;5051689;28;19959;-87
2022/01/23 07:17:50;;;;;;;;;;;1.30;84.90;;;;;;5046094;28;20008;-87
2022/01/23 07:20:16;;;;;;;;;;;1.40;84.70;;;;;;5053336;28;19944;-87
2022/01/23 07:22:41;;;;;;;;;;;1.50;84.50;;;;;;5053270;28;19912;-87
2022/01/23 07:25:07;;;;;;;;;;;1.50;84.20;;;;;;5038612;28;20383;-87
2022/01/23 07:27:52;;;;;;;;;;;1.50;83.70;;;;;;5034218;28;19996;-87
2022/01/23 07:30:34;;;;;;;;;;;1.50;83.40;;;;;;5035794;28;20371;-87
2022/01/23 07:33:00;;;;;;;;;;;1.50;83.90;;;;;;5033486;28;19909;-87
2022/01/23 07:35:26;;;;;;;;;;;1.50;84.00;;;;;;5051687;28;20278;-86
2022/01/23 07:37:51;;;;;;;;;;;1.50;84.00;;;;;;5051361;28;19936;-87
2022/01/23 07:40:19;;;;;;;;;;;1.50;84.20;;;;;;5033401;28;20286;-87
2022/01/23 07:42:45;;;;;;;;;;;1.60;84.20;;;;;;5032926;28;20383;-87
2022/01/23 07:45:11;;;;;;;;;;;1.60;84.10;;;;;;5034028;28;19913;-87
2022/01/23 07:47:36;;;;;;;;;;;1.70;84.00;;;;;;5034278;28;19913;-87
2022/01/23 07:50:03;;;;;;;;;;;1.70;84.20;;;;;;5052965;28;19965;-87
2022/01/23 07:52:30;;;;;;;;;;;1.70;84.80;;;;;;5052955;28;19909;-87
2022/01/23 07:54:56;;;;;;;;;;;1.80;85.60;;;;;;5052961;28;19960;-87
2022/01/23 07:57:21;;;;;;;;;;;1.80;85.40;;;;;;5052891;28;19909;-87
2022/01/23 07:59:47;;;;;;;;;;;1.70;85.00;;;;;;5055014;28;19913;-87
2022/01/23 08:02:12;;;;;;;;;;;1.80;85.20;;;;;;5056935;28;20019;-87
2022/01/23 08:04:38;;;;;;;;;;;1.80;85.20;;;;;;5056963;28;19909;-87
2022/01/23 08:07:10;;;;;;;;;;;1.80;85.20;;;;;;5055639;28;19909;-87
2022/01/23 08:09:36;;;;;;;;;;;1.90;85.20;;;;;;5054954;28;19948;-87
2022/01/23 08:12:01;;;;;;;;;;;1.90;85.30;;;;;;5056825;28;19945;-87
2022/01/23 08:14:27;;;;;;;;;;;1.90;85.40;;;;;;5043903;28;20003;-87
2022/01/23 08:16:52;;;;;;;;;;;2.00;85.20;;;;;;5036800;28;20379;-87
2022/01/23 08:19:18;;;;;;;;;;;2.10;84.40;;;;;;5051559;28;20358;-87
2022/01/23 08:21:43;;;;;;;;;;;2.20;83.80;;;;;;5056540;28;19909;-87
2022/01/23 08:24:11;;;;;;;;;;;2.30;83.80;;;;;;5056581;28;19909;-87
2022/01/23 08:26:37;;;;;;;;;;;2.40;83.70;;;;;;5056516;28;19912;-87
2022/01/23 08:29:03;;;;;;;;;;;2.40;83.70;;;;;;5046649;28;19956;-86
2022/01/23 08:31:29;;;;;;;;;;;2.50;84.20;;;;;;5036537;28;19916;-86
2022/01/23 08:33:54;;;;;;;;;;;2.40;84.50;;;;;;5036450;28;20000;-86
2022/01/23 08:36:20;;;;;;;;;;;2.40;84.00;;;;;;5036440;28;19909;-87
2022/01/23 08:38:45;;;;;;;;;;;2.40;83.60;;;;;;5042715;28;19985;-86
2022/01/23 08:43:37;;;;;;;;;;;2.60;84.00;;;;;;5053008;28;19980;-87
2022/01/23 08:46:03;;;;;;;;;;;2.70;84.00;;;;;;5054382;28;19970;-87
2022/01/23 08:48:29;;;;;;;;;;;2.80;84.00;;;;;;5056110;28;19962;-87
2022/01/23 08:50:54;;;;;;;;;;;2.90;83.90;;;;;;5056069;28;20011;-87
2022/01/23 08:53:20;;;;;;;;;;;3.10;84.00;;;;;;5056013;28;19909;-87
2022/01/23 08:55:46;;;;;;;;;;;3.20;82.90;;;;;;5048855;28;19913;-87
2022/01/23 08:58:12;;;;;;;;;;;3.30;81.40;;;;;;5037032;28;19916;-87
2022/01/23 09:00:38;;;;;;;;;;;3.30;80.20;;;;;;5036998;28;19913;-87
2022/01/23 09:03:03;;;;;;;;;;;3.40;80.10;;;;;;5035881;28;20381;-87
2022/01/23 09:05:29;;;;;;;;;;;3.50;79.20;;;;;;5036908;28;19916;-87
2022/01/23 09:07:54;;;;;;;;;;;3.50;78.80;;;;;;5037165;28;20278;-87
2022/01/23 09:10:28;;;;;;;;;;;3.40;80.40;;;;;;5035013;28;20363;-87
2022/01/23 09:13:05;;;;;;;;;;;3.40;80.80;;;;;;5034508;28;19916;-87
2022/01/23 09:15:31;;;;;;;;;;;3.40;80.20;;;;;;5036716;28;19913;-87
2022/01/23 09:17:56;;;;;;;;;;;3.50;79.70;;;;;;5035685;28;19913;-87
2022/01/23 09:20:22;;;;;;;;;;;3.50;79.80;;;;;;5036732;28;20354;-87
2022/01/23 09:22:47;;;;;;;;;;;3.50;80.00;;;;;;5036535;28;20347;-87
2022/01/23 09:25:13;;;;;;;;;;;3.50;79.40;;;;;;5035588;28;20323;-87
2022/01/23 09:27:39;;;;;;;;;;;3.40;79.50;;;;;;5035441;28;20402;-87
2022/01/23 09:30:16;;;;;;;;;;;3.40;80.10;;;;;;5044938;28;19913;-87
2022/01/23 09:32:43;;;;;;;;;;;3.50;80.20;;;;;;5054038;28;20347;-87
2022/01/23 09:35:09;;;;;;;;;;;3.70;79.50;;;;;;5055540;28;19908;-87
2022/01/23 09:37:34;;;;;;;;;;;3.90;77.40;;;;;;5055292;28;20381;-87
2022/01/23 09:40:00;;;;;;;;;;;3.90;74.90;;;;;;5052166;28;19919;-87
2022/01/23 09:42:27;;;;;;;;;;;4.10;74.50;;;;;;5054987;28;20103;-87
2022/01/23 09:44:56;;;;;;;;;;;4.10;74.00;;;;;;5047964;28;19998;-87
2022/01/23 09:47:22;;;;;;;;;;;4.20;73.70;;;;;;5035132;28;19917;-87
2022/01/23 09:49:48;;;;;;;;;;;4.40;73.30;;;;;;5044907;28;19912;-87
2022/01/23 09:52:15;;;;;;;;;;;4.60;73.30;;;;;;5053695;28;19916;-87
2022/01/23 09:54:41;;;;;;;;;;;4.70;73.10;;;;;;5051172;28;19913;-87
2022/01/23 09:57:08;;;;;;;;;;;4.90;73.00;;;;;;5034924;28;19913;-87
2022/01/23 09:59:33;;;;;;;;;;;5.00;73.40;;;;;;5035918;28;19914;-87
2022/01/23 10:02:01;;;;;;;;;;;5.20;73.00;;;;;;5033492;28;19920;-87
2022/01/23 10:04:27;;;;;;;;;;;5.40;72.50;;;;;;5038282;28;19964;-87
2022/01/23 10:06:53;;;;;;;;;;;5.50;71.40;;;;;;5036193;28;20353;-87
2022/01/23 10:09:21;;;;;;;;;;;5.50;71.10;;;;;;5040296;28;19917;-87
2022/01/23 10:11:47;;;;;;;;;;;5.40;70.60;;;;;;5054852;28;19912;-87
2022/01/23 10:14:14;;;;;;;;;;;5.30;71.50;;;;;;5052836;28;19949;-87
2022/01/23 10:16:39;;;;;;;;;;;5.40;72.10;;;;;;5054473;28;20360;-87
2022/01/23 10:19:05;;;;;;;;;;;5.40;72.20;;;;;;5052714;28;19920;-87
2022/01/23 10:21:31;;;;;;;;;;;5.60;72.40;;;;;;5053589;28;19931;-87
2022/01/23 10:23:57;;;;;;;;;;;5.70;72.20;;;;;;5052372;28;19921;-87
2022/01/23 10:26:39;;;;;;;;;;;5.80;71.70;;;;;;5054316;28;20003;-87
2022/01/23 10:29:26;;;;;;;;;;;5.90;72.10;;;;;;5052408;28;20338;-87
2022/01/23 10:32:01;;;;;;;;;;;6.00;72.30;;;;;;5054238;28;19909;-87
2022/01/23 10:34:46;;;;;;;;;;;6.00;72.10;;;;;;5052685;28;19935;-87
2022/01/23 10:37:22;;;;;;;;;;;6.10;72.20;;;;;;5053547;28;19952;-87
2022/01/23 10:39:47;;;;;;;;;;;6.10;71.60;;;;;;5052347;28;20004;-87
2022/01/23 10:47:56;;;;;;;;;;;6.20;71.80;;;;;;5053562;28;19915;-87
2022/01/23 10:50:22;;;;;;;;;;;6.30;72.60;;;;;;5037738;28;20004;-87
2022/01/23 10:52:50;;;;;;;;;;;6.40;72.30;;;;;;5034166;28;19909;-87
2022/01/23 10:55:25;;;;;;;;;;;6.60;71.70;;;;;;5035111;28;20016;-87
2022/01/23 10:57:53;;;;;;;;;;;6.80;71.20;;;;;;5033757;28;20378;-87
2022/01/23 11:00:27;;;;;;;;;;;7.00;70.70;;;;;;5034031;28;20008;-88
2022/01/23 11:02:53;;;;;;;;;;;7.20;70.40;;;;;;5013952;28;20421;-87
2022/01/23 11:05:19;;;;;;;;;;;7.40;69.60;;;;;;5026794;28;19970;-87
2022/01/23 11:07:48;;;;;;;;;;;7.60;69.30;;;;;;5053536;28;19912;-87
2022/01/23 11:10:14;;;;;;;;;;;7.80;68.80;;;;;;5053415;28;19909;-88
2022/01/23 11:18:03;;;;;;;;;;;8.40;66.90;;;;;;5053712;28;19959;-87
2022/01/23 11:20:31;;;;;;;;;;;8.40;66.40;;;;;;5051599;28;20362;-87
2022/01/23 11:23:15;;;;;;;;;;;8.60;66.50;;;;;;5051974;28;19916;-87
2022/01/23 11:25:42;;;;;;;;;;;8.60;66.40;;;;;;5042876;28;20170;-87
2022/01/23 11:28:08;;;;;;;;;;;8.80;66.20;;;;;;5033192;28;20359;-87
2022/01/23 11:30:35;;;;;;;;;;;8.90;65.50;;;;;;5034498;28;20015;-87
2022/01/23 11:33:01;;;;;;;;;;;9.10;65.10;;;;;;5032928;28;20000;-87
2022/01/23 11:35:28;;;;;;;;;;;9.30;65.00;;;;;;5033275;28;20003;-87
2022/01/23 11:37:54;;;;;;;;;;;9.40;64.60;;;;;;5033236;28;20374;-87
2022/01/23 11:40:35;;;;;;;;;;;9.60;63.90;;;;;;5034203;28;19963;-87
2022/01/23 11:54:00;;;;;;;;;;;10.60;62.20;;;;;;4973156;28;19920;-88
2022/01/23 11:56:31;;;;;;;;;;;10.90;60.60;;;;;;5020914;28;19920;-88
2022/01/23 11:59:20;;;;;;;;;;;11.00;60.60;;;;;;5051131;28;19967;-88
2022/01/23 12:01:47;;;;;;;;;;;11.30;60.20;;;;;;5052795;28;20006;-88
2022/01/23 12:04:21;;;;;;;;;;;11.80;59.10;;;;;;5053460;28;19909;-88
2022/01/23 12:07:07;;;;;;;;;;;12.30;57.60;;;;;;5046129;28;19959;-88
2022/01/23 12:09:32;;;;;;;;;;;12.90;55.80;;;;;;5032210;28;19909;-88
2022/01/23 12:12:01;;;;;;;;;;;13.40;54.30;;;;;;5032842;28;19995;-88
2022/01/23 12:17:17;;;;;;;;;;;14.30;51.90;;;;;;5000607;28;19913;-88
2022/01/23 12:19:45;;;;;;;;;;;14.90;50.70;;;;;;5032467;28;19913;-88
2022/01/23 12:22:22;;;;;;;;;;;15.40;49.00;;;;;;5032946;28;19945;-88
2022/01/23 12:24:48;;;;;;;;;;;15.70;47.80;;;;;;5032422;28;19917;-88
2022/01/23 12:27:19;;;;;;;;;;;16.00;47.70;;;;;;5031509;28;19913;-88
2022/01/23 12:29:44;;;;;;;;;;;16.30;46.00;;;;;;5028868;28;20339;-88
2022/01/23 12:32:26;;;;;;;;;;;16.50;45.40;;;;;;5032690;28;20015;-88
2022/01/23 12:34:53;;;;;;;;;;;16.80;44.90;;;;;;5032347;28;20353;-88
2022/01/23 12:37:19;;;;;;;;;;;16.50;45.00;;;;;;5032676;28;20008;-88
2022/01/23 12:39:46;;;;;;;;;;;16.40;45.70;;;;;;5032242;28;20008;-88
2022/01/23 12:42:12;;;;;;;;;;;16.80;44.70;;;;;;5032165;28;19921;-88
2022/01/23 12:44:38;;;;;;;;;;;17.50;43.00;;;;;;5031625;28;19913;-88
2022/01/23 12:47:06;;;;;;;;;;;17.60;42.20;;;;;;5036209;28;19955;-88
2022/01/23 12:49:33;;;;;;;;;;;17.30;43.20;;;;;;5036249;28;19909;-88
2022/01/23 12:52:07;;;;;;;;;;;17.80;42.30;;;;;;5036462;28;20064;-88
2022/01/23 12:54:35;;;;;;;;;;;17.90;41.60;;;;;;5035560;28;19913;-88
2022/01/23 12:57:09;;;;;;;;;;;18.10;41.30;;;;;;5036082;28;20283;-88
2022/01/23 12:59:36;;;;;;;;;;;18.30;40.50;;;;;;5035688;28;19913;-88
2022/01/23 13:02:08;;;;;;;;;;;18.00;40.70;;;;;;5035954;28;20375;-88
2022/01/23 13:04:37;;;;;;;;;;;17.80;41.30;;;;;;5035230;28;19956;-88
2022/01/23 13:07:06;;;;;;;;;;;17.50;41.80;;;;;;5035856;28;19945;-89
2022/01/23 13:09:44;;;;;;;;;;;17.00;43.80;;;;;;5035621;28;19909;-89
2022/01/23 13:31:38;;;;;;;;;;;18.00;40.80;;;;;;5035751;28;19916;-88
2022/01/23 13:34:03;;;;;;;;;;;18.30;40.00;;;;;;5035424;28;20007;-88
2022/01/23 13:36:29;;;;;;;;;;;18.00;40.40;;;;;;5034980;28;20000;-88
2022/01/23 13:38:55;;;;;;;;;;;17.30;41.20;;;;;;5034993;28;19913;-88
2022/01/23 13:41:35;;;;;;;;;;;17.10;42.50;;;;;;5035488;28;19924;-88
2022/01/23 13:52:55;;;;;;;;;;;16.30;43.90;;;;;;5018478;28;20003;-88
2022/01/23 14:00:33;;;;;;;;;;;15.60;46.70;;;;;;5034317;28;19995;-89
2022/01/23 14:02:59;;;;;;;;;;;16.00;45.10;;;;;;5034543;28;20390;-89
2022/01/23 14:05:30;;;;;;;;;;;16.20;44.70;;;;;;5035074;28;20274;-89
2022/01/23 14:07:57;;;;;;;;;;;15.90;45.80;;;;;;5034781;28;19909;-89
2022/01/23 14:10:24;;;;;;;;;;;15.80;46.30;;;;;;5034393;28;20313;-89
2022/01/23 14:12:51;;;;;;;;;;;15.20;47.10;;;;;;5021813;28;19936;-89
2022/01/23 14:15:28;;;;;;;;;;;14.70;47.90;;;;;;5034038;28;19920;-89
2022/01/23 14:17:56;;;;;;;;;;;14.80;48.10;;;;;;5034629;28;19910;-89
2022/01/23 14:20:23;;;;;;;;;;;15.00;48.00;;;;;;5034569;28;19908;-89
2022/01/23 14:22:48;;;;;;;;;;;15.10;47.80;;;;;;5034073;28;19968;-89
2022/01/23 14:25:18;;;;;;;;;;;15.40;47.10;;;;;;5034452;28;19909;-89
2022/01/23 14:27:56;;;;;;;;;;;15.00;48.10;;;;;;5034172;28;19925;-88
2022/01/23 14:30:23;;;;;;;;;;;14.70;48.50;;;;;;5034366;28;19909;-88
2022/01/23 14:32:52;;;;;;;;;;;14.50;49.10;;;;;;5033917;28;19913;-89
2022/01/23 14:35:19;;;;;;;;;;;14.90;48.40;;;;;;5034285;28;19948;-89
2022/01/23 14:37:46;;;;;;;;;;;15.00;47.60;;;;;;5034518;28;20347;-89
2022/01/23 14:40:16;;;;;;;;;;;14.70;48.60;;;;;;5034090;28;19909;-89
2022/01/23 14:43:00;;;;;;;;;;;14.20;50.30;;;;;;5033586;28;19966;-89
2022/01/23 14:45:27;;;;;;;;;;;14.10;50.00;;;;;;5034098;28;19979;-89
2022/01/23 14:47:53;;;;;;;;;;;14.10;50.40;;;;;;5034035;28;19909;-88
2022/01/23 14:50:20;;;;;;;;;;;13.90;50.80;;;;;;5033650;28;19913;-89
2022/01/23 14:52:47;;;;;;;;;;;13.60;51.90;;;;;;5034158;28;19915;-89
2022/01/23 14:55:13;;;;;;;;;;;13.70;51.80;;;;;;5034185;28;19913;-89
2022/01/23 14:57:40;;;;;;;;;;;13.80;52.10;;;;;;5033467;28;20642;-89
2022/01/23 15:00:06;;;;;;;;;;;13.50;52.20;;;;;;5033546;28;19920;-89
2022/01/23 15:02:32;;;;;;;;;;;13.30;53.20;;;;;;5033695;28;19913;-88
2022/01/23 15:05:02;;;;;;;;;;;13.00;53.80;;;;;;5033738;28;19913;-89
2022/01/23 15:07:32;;;;;;;;;;;12.90;54.50;;;;;;5033036;28;20291;-88
2022/01/23 15:09:58;;;;;;;;;;;12.70;54.90;;;;;;5033323;28;19920;-89
2022/01/23 15:12:23;;;;;;;;;;;12.60;55.00;;;;;;5033253;28;19909;-89
2022/01/23 15:14:49;;;;;;;;;;;12.30;56.20;;;;;;5033534;28;19909;-88
2022/01/23 15:17:14;;;;;;;;;;;11.90;57.20;;;;;;5033498;28;19910;-88
2022/01/23 15:19:40;;;;;;;;;;;11.80;57.80;;;;;;5033127;28;20263;-89
2022/01/23 15:22:05;;;;;;;;;;;11.60;58.70;;;;;;5033365;28;19909;-88
2022/01/23 15:24:31;;;;;;;;;;;11.40;59.00;;;;;;5033386;28;19940;-88
2022/01/23 15:26:57;;;;;;;;;;;11.30;59.80;;;;;;5033084;28;20393;-88
2022/01/23 15:29:22;;;;;;;;;;;11.10;60.40;;;;;;5032749;28;19917;-88
2022/01/23 15:31:48;;;;;;;;;;;10.90;60.80;;;;;;5033310;28;19916;-88
2022/01/23 15:34:15;;;;;;;;;;;10.70;62.10;;;;;;5033248;28;19910;-88
2022/01/23 15:36:41;;;;;;;;;;;10.40;63.00;;;;;;5033240;28;20012;-88
2022/01/23 15:39:07;;;;;;;;;;;10.30;63.50;;;;;;5032836;28;20012;-88
2022/01/23 15:41:32;;;;;;;;;;;10.10;64.10;;;;;;5032930;28;20004;-88
2022/01/23 15:43:58;;;;;;;;;;;10.00;64.50;;;;;;5032684;28;19924;-88
2022/01/23 15:46:23;;;;;;;;;;;9.80;65.10;;;;;;5032496;28;19996;-88
2022/01/23 15:48:49;;;;;;;;;;;9.70;65.30;;;;;;5033304;28;19909;-88
2022/01/23 15:51:15;;;;;;;;;;;9.60;65.90;;;;;;5032945;28;20278;-88
2022/01/23 15:53:40;;;;;;;;;;;9.30;66.60;;;;;;5032197;28;19920;-88
2022/01/23 15:56:06;;;;;;;;;;;9.20;67.20;;;;;;5033027;28;19909;-89
2022/01/23 15:58:32;;;;;;;;;;;9.00;68.20;;;;;;5032651;28;20368;-88
2022/01/23 16:00:58;;;;;;;;;;;8.80;68.60;;;;;;5033274;28;20000;-88
2022/01/23 16:03:26;;;;;;;;;;;8.60;69.50;;;;;;5032600;28;20355;-88
2022/01/23 16:05:52;;;;;;;;;;;8.50;69.90;;;;;;5032935;28;19909;-88
2022/01/23 16:08:18;;;;;;;;;;;8.40;70.40;;;;;;5032617;28;19917;-88
2022/01/23 16:10:44;;;;;;;;;;;8.20;70.80;;;;;;5032925;28;19905;-88
2022/01/23 16:13:09;;;;;;;;;;;8.10;71.10;;;;;;5032271;28;20011;-88
2022/01/23 16:15:35;;;;;;;;;;;7.90;71.70;;;;;;5032871;28;19913;-88
2022/01/23 16:18:02;;;;;;;;;;;7.80;72.10;;;;;;5032837;28;20051;-88
2022/01/23 16:20:28;;;;;;;;;;;7.60;72.60;;;;;;5035448;28;19917;-88
2022/01/23 16:22:53;;;;;;;;;;;7.50;72.70;;;;;;5035924;28;19924;-88
2022/01/23 16:25:21;;;;;;;;;;;7.40;71.80;;;;;;5036711;28;19916;-88
2022/01/23 16:27:47;;;;;;;;;;;7.30;72.70;;;;;;5036428;28;19967;-88
2022/01/23 16:30:12;;;;;;;;;;;7.10;72.70;;;;;;5036661;28;20323;-88
2022/01/23 16:32:38;;;;;;;;;;;6.90;73.10;;;;;;5036313;28;19916;-88
2022/01/23 16:35:04;;;;;;;;;;;6.80;73.90;;;;;;5036526;28;19994;-88
2022/01/23 16:37:29;;;;;;;;;;;6.70;74.70;;;;;;5036154;28;19967;-88
2022/01/23 16:39:55;;;;;;;;;;;6.50;75.30;;;;;;5036330;28;19913;-88
2022/01/23 16:42:20;;;;;;;;;;;6.40;76.00;;;;;;5018355;28;20302;-88
2022/01/23 16:44:46;;;;;;;;;;;6.30;76.30;;;;;;5036068;28;19913;-89
2022/01/23 16:47:12;;;;;;;;;;;6.20;76.00;;;;;;5035947;28;19916;-88
2022/01/23 16:49:38;;;;;;;;;;;6.00;76.00;;;;;;5036247;28;19917;-88
2022/01/23 16:52:04;;;;;;;;;;;5.90;77.00;;;;;;5036097;28;19909;-88
2022/01/23 16:54:30;;;;;;;;;;;5.80;77.20;;;;;;5036166;28;19936;-88
2022/01/23 16:56:56;;;;;;;;;;;5.70;78.10;;;;;;5036125;28;19935;-88
2022/01/23 16:59:21;;;;;;;;;;;5.60;78.10;;;;;;5035680;28;20007;-89
2022/01/23 17:01:47;;;;;;;;;;;5.50;78.30;;;;;;5036032;28;19971;-88
2022/01/23 17:04:13;;;;;;;;;;;5.40;78.80;;;;;;5036202;28;19913;-89
2022/01/23 17:06:39;;;;;;;;;;;5.30;78.70;;;;;;5035993;28;20007;-89
2022/01/23 17:09:06;;;;;;;;;;;5.20;78.90;;;;;;5035504;28;20343;-89
2022/01/23 17:11:32;;;;;;;;;;;5.10;78.90;;;;;;5035904;28;20395;-89
2022/01/23 17:13:57;;;;;;;;;;;5.00;79.10;;;;;;5035467;28;19963;-89
2022/01/23 17:16:23;;;;;;;;;;;5.00;79.60;;;;;;5035791;28;19999;-89
2022/01/23 17:18:48;;;;;;;;;;;4.90;80.30;;;;;;5035467;28;19909;-89
2022/01/23 17:21:14;;;;;;;;;;;4.90;80.80;;;;;;5035693;28;19913;-89
2022/01/23 17:23:39;;;;;;;;;;;4.80;80.70;;;;;;5035586;28;19984;-89
2022/01/23 17:26:07;;;;;;;;;;;4.70;80.40;;;;;;5035345;28;19909;-88
2022/01/23 17:28:32;;;;;;;;;;;4.70;80.00;;;;;;5035087;28;19913;-88
2022/01/23 17:30:58;;;;;;;;;;;4.60;80.00;;;;;;5034886;28;19920;-88
2022/01/23 17:33:23;;;;;;;;;;;4.60;80.40;;;;;;5035481;28;19909;-88
2022/01/23 17:35:49;;;;;;;;;;;4.50;81.20;;;;;;5035150;28;19916;-88
2022/01/23 17:38:15;;;;;;;;;;;4.50;81.00;;;;;;5035420;28;19913;-88
2022/01/23 17:40:41;;;;;;;;;;;4.40;80.60;;;;;;5035599;28;19952;-88
2022/01/23 17:43:06;;;;;;;;;;;4.30;81.20;;;;;;5034596;28;20283;-88